76542 XUBS-UUOT
Flight info
| Callsign | 76542 |
|---|---|
| Flight time | N/A |
| Altitude | 32000 |
| Route | XUBS DCT OSPIL NEBSU GODBI SOTOG ENOSI LODKU OLOPI DOSAG M56 ABAGI T794 RUBEK ABDIS DCT USYZ |
| Aircraft | IL76/H-SDE3GHIJ2J3J5M1RVWXY/LB2D1 |
Departure
| Time | N/A |
|---|---|
| Airport | XUBS |
Arrival
| Time | 2026-04-25 20:53 |
|---|---|
| Airport | Donskoye Airport (UUOT) |
| Time | Latitude | Longitude | Altitude | Speed | Heading |
|---|---|---|---|---|---|
| 2026-04-25 20:31 | 54.37849 | 38.74644 | 32132 ft | 459 kts | 105° |
| 2026-04-25 20:31 | 54.36165 | 38.85181 | 32133 ft | 459 kts | 105° |
| 2026-04-25 20:32 | 54.34478 | 38.95660 | 32133 ft | 459 kts | 105° |
| 2026-04-25 20:32 | 54.32776 | 39.06173 | 32134 ft | 459 kts | 105° |
| 2026-04-25 20:33 | 54.31057 | 39.16723 | 32135 ft | 459 kts | 105° |
| 2026-04-25 20:33 | 54.29151 | 39.25149 | 32085 ft | 457 kts | 126° |
| 2026-04-25 20:34 | 54.24409 | 39.34914 | 31821 ft | 463 kts | 130° |
| 2026-04-25 20:34 | 54.22317 | 39.39156 | 31597 ft | 467 kts | 130° |
| 2026-04-25 20:34 | 54.20219 | 39.43405 | 31299 ft | 471 kts | 130° |
| 2026-04-25 20:35 | 54.18114 | 39.47669 | 31005 ft | 474 kts | 129° |
| 2026-04-25 20:35 | 54.15988 | 39.51971 | 30709 ft | 475 kts | 129° |
| 2026-04-25 20:35 | 54.13842 | 39.56314 | 30411 ft | 477 kts | 129° |
| 2026-04-25 20:35 | 54.11710 | 39.60625 | 30115 ft | 478 kts | 129° |
| 2026-04-25 20:36 | 54.09576 | 39.64937 | 29820 ft | 479 kts | 129° |
| 2026-04-25 20:36 | 54.07413 | 39.69308 | 29520 ft | 480 kts | 130° |
| 2026-04-25 20:36 | 54.05209 | 39.73619 | 29219 ft | 480 kts | 132° |
| 2026-04-25 20:36 | 54.03011 | 39.77821 | 28815 ft | 478 kts | 131° |
| 2026-04-25 20:37 | 54.00805 | 39.82021 | 28365 ft | 472 kts | 131° |
| 2026-04-25 20:37 | 53.98622 | 39.86183 | 27916 ft | 469 kts | 131° |
| 2026-04-25 20:37 | 53.96480 | 39.90260 | 27475 ft | 467 kts | 131° |
| 2026-04-25 20:37 | 53.94333 | 39.94340 | 27031 ft | 467 kts | 131° |
| 2026-04-25 20:38 | 53.92167 | 39.98450 | 26583 ft | 466 kts | 131° |
| 2026-04-25 20:38 | 53.89986 | 40.02582 | 26074 ft | 468 kts | 131° |
| 2026-04-25 20:38 | 53.87828 | 40.06664 | 25476 ft | 471 kts | 131° |
| 2026-04-25 20:38 | 53.85630 | 40.10814 | 24878 ft | 473 kts | 131° |
| 2026-04-25 20:39 | 53.83447 | 40.14929 | 24286 ft | 475 kts | 131° |
| 2026-04-25 20:39 | 53.81224 | 40.19112 | 23685 ft | 476 kts | 131° |
| 2026-04-25 20:39 | 53.79036 | 40.23222 | 23106 ft | 477 kts | 131° |
| 2026-04-25 20:39 | 53.77546 | 40.26017 | 22786 ft | 476 kts | 131° |
| 2026-04-25 20:40 | 53.74619 | 40.31498 | 22303 ft | 472 kts | 131° |
| 2026-04-25 20:40 | 53.72432 | 40.35585 | 21995 ft | 470 kts | 131° |
| 2026-04-25 20:40 | 53.70240 | 40.39675 | 21710 ft | 468 kts | 131° |
| 2026-04-25 20:40 | 53.68061 | 40.43733 | 21448 ft | 466 kts | 131° |
| 2026-04-25 20:41 | 53.65891 | 40.47768 | 21203 ft | 464 kts | 131° |
| 2026-04-25 20:41 | 53.63740 | 40.51762 | 20971 ft | 463 kts | 131° |
| 2026-04-25 20:41 | 53.61591 | 40.55747 | 20748 ft | 461 kts | 131° |
| 2026-04-25 20:41 | 53.59431 | 40.59742 | 20529 ft | 460 kts | 131° |
| 2026-04-25 20:42 | 53.57312 | 40.63657 | 20319 ft | 458 kts | 131° |
| 2026-04-25 20:42 | 53.55167 | 40.67614 | 20111 ft | 457 kts | 133° |
| 2026-04-25 20:42 | 53.53045 | 40.71522 | 19909 ft | 455 kts | 133° |
| 2026-04-25 20:42 | 53.50895 | 40.75475 | 19708 ft | 454 kts | 133° |
| 2026-04-25 20:43 | 53.48792 | 40.79336 | 19514 ft | 453 kts | 133° |
| 2026-04-25 20:43 | 53.46673 | 40.83218 | 19322 ft | 452 kts | 133° |
| 2026-04-25 20:43 | 53.44535 | 40.87131 | 19135 ft | 453 kts | 133° |
| 2026-04-25 20:43 | 53.42426 | 40.90984 | 18355 ft | 451 kts | 133° |
| 2026-04-25 20:44 | 53.40359 | 40.94755 | 16147 ft | 446 kts | 132° |
| 2026-04-25 20:44 | 53.38361 | 40.98395 | 15101 ft | 409 kts | 133° |
| 2026-04-25 20:44 | 53.36530 | 41.01721 | 13935 ft | 372 kts | 133° |
| 2026-04-25 20:44 | 53.34945 | 41.04597 | 14157 ft | 326 kts | 133° |
| 2026-04-25 20:45 | 53.33364 | 41.07456 | 13502 ft | 339 kts | 132° |
| 2026-04-25 20:45 | 53.31769 | 41.10354 | 13272 ft | 338 kts | 132° |
| 2026-04-25 20:45 | 53.30162 | 41.13266 | 12791 ft | 345 kts | 132° |
| 2026-04-25 20:45 | 53.28532 | 41.16214 | 12330 ft | 351 kts | 132° |
| 2026-04-25 20:46 | 53.26857 | 41.19242 | 11862 ft | 355 kts | 132° |
| 2026-04-25 20:46 | 53.25164 | 41.22299 | 11394 ft | 359 kts | 132° |
| 2026-04-25 20:46 | 53.23450 | 41.25346 | 10927 ft | 362 kts | 136° |
| 2026-04-25 20:46 | 53.21289 | 41.27481 | 10421 ft | 364 kts | 162° |
| 2026-04-25 20:47 | 53.18893 | 41.28704 | 9914 ft | 367 kts | 161° |
| 2026-04-25 20:47 | 53.16421 | 41.29939 | 9216 ft | 375 kts | 163° |
| 2026-04-25 20:47 | 53.13887 | 41.31221 | 8518 ft | 382 kts | 163° |
| 2026-04-25 20:47 | 53.11340 | 41.32488 | 7912 ft | 385 kts | 162° |
| 2026-04-25 20:48 | 53.08782 | 41.33764 | 7475 ft | 382 kts | 163° |
| 2026-04-25 20:48 | 53.06260 | 41.35027 | 7070 ft | 380 kts | 163° |
| 2026-04-25 20:48 | 53.03757 | 41.36274 | 6663 ft | 377 kts | 163° |
| 2026-04-25 20:48 | 53.01250 | 41.37522 | 6257 ft | 375 kts | 163° |
| 2026-04-25 20:49 | 52.98760 | 41.38762 | 5859 ft | 373 kts | 163° |
| 2026-04-25 20:49 | 52.96269 | 41.40049 | 5455 ft | 371 kts | 161° |
| 2026-04-25 20:49 | 52.93958 | 41.41197 | 4032 ft | 345 kts | 165° |
| 2026-04-25 20:49 | 52.92246 | 41.41933 | 3522 ft | 295 kts | 131° |
| 2026-04-25 20:50 | 52.91902 | 41.42598 | 3532 ft | 279 kts | 128° |
| 2026-04-25 20:50 | 52.90689 | 41.44876 | 3651 ft | 246 kts | 140° |
| 2026-04-25 20:50 | 52.89250 | 41.45747 | 3221 ft | 210 kts | 180° |
| 2026-04-25 20:50 | 52.87954 | 41.45330 | 2999 ft | 170 kts | 193° |
| 2026-04-25 20:51 | 52.86861 | 41.44866 | 2716 ft | 163 kts | 194° |
| 2026-04-25 20:51 | 52.85720 | 41.44523 | 2505 ft | 167 kts | 185° |
| 2026-04-25 20:51 | 52.85045 | 41.44558 | 2371 ft | 164 kts | 173° |
| 2026-04-25 20:51 | 52.84023 | 41.45131 | 2010 ft | 173 kts | 152° |
| 2026-04-25 20:52 | 52.82994 | 41.46191 | 1465 ft | 176 kts | 148° |
| 2026-04-25 20:52 | 52.82324 | 41.46842 | 955 ft | 162 kts | 151° |
| 2026-04-25 20:52 | 52.81124 | 41.47870 | 400 ft | 123 kts | 153° |
| 2026-04-25 20:52 | 52.80545 | 41.48357 | 411 ft | 60 kts | 152° |
| 2026-04-25 20:53 | 52.80301 | 41.48557 | 415 ft | 26 kts | 159° |
| 2026-04-25 20:53 | 52.80183 | 41.48680 | 417 ft | 12 kts | 96° |
| 2026-04-25 20:53 | 52.80195 | 41.48756 | 419 ft | 0 kts | 56° |
| 2026-04-25 20:53 | 52.80236 | 41.48882 | 421 ft | 22 kts | 65° |